sensor_id;sensor_type;location;lat;lon;timestamp;pressure;altitude;pressure_sealevel;temperature;humidity
11444;BME280;5778;47.856;12.154;2022-12-04T00:00:02;95919.69;;;1.97;100.00
11444;BME280;5778;47.856;12.154;2022-12-04T00:02:30;95917.69;;;1.93;100.00
11444;BME280;5778;47.856;12.154;2022-12-04T00:04:57;95918.53;;;1.87;100.00
11444;BME280;5778;47.856;12.154;2022-12-04T00:07:24;95916.91;;;1.86;100.00
11444;BME280;5778;47.856;12.154;2022-12-04T00:09:51;95920.50;;;1.91;100.00
11444;BME280;5778;47.856;12.154;2022-12-04T00:12:18;95911.31;;;1.76;100.00
11444;BME280;5778;47.856;12.154;2022-12-04T00:14:45;95921.59;;;1.71;100.00
11444;BME280;5778;47.856;12.154;2022-12-04T00:17:13;95920.38;;;1.80;100.00
11444;BME280;5778;47.856;12.154;2022-12-04T00:19:40;95916.50;;;1.89;100.00
11444;BME280;5778;47.856;12.154;2022-12-04T00:22:07;95918.97;;;1.77;100.00
11444;BME280;5778;47.856;12.154;2022-12-04T00:24:34;95914.69;;;1.89;100.00
11444;BME280;5778;47.856;12.154;2022-12-04T00:27:01;95936.22;;;1.98;100.00
11444;BME280;5778;47.856;12.154;2022-12-04T00:29:28;95929.22;;;1.85;100.00
11444;BME280;5778;47.856;12.154;2022-12-04T00:31:55;95923.97;;;1.79;100.00
11444;BME280;5778;47.856;12.154;2022-12-04T00:34:23;95920.72;;;1.90;100.00
11444;BME280;5778;47.856;12.154;2022-12-04T00:36:50;95917.50;;;1.88;100.00
11444;BME280;5778;47.856;12.154;2022-12-04T00:39:17;95923.75;;;1.87;100.00
11444;BME280;5778;47.856;12.154;2022-12-04T00:41:44;95928.00;;;1.81;100.00
11444;BME280;5778;47.856;12.154;2022-12-04T00:44:12;95920.19;;;1.75;100.00
11444;BME280;5778;47.856;12.154;2022-12-04T00:46:39;95924.03;;;1.66;100.00
11444;BME280;5778;47.856;12.154;2022-12-04T00:49:07;95927.47;;;1.66;100.00
11444;BME280;5778;47.856;12.154;2022-12-04T00:51:37;95935.09;;;1.68;100.00
11444;BME280;5778;47.856;12.154;2022-12-04T00:54:04;95933.69;;;1.72;100.00
11444;BME280;5778;47.856;12.154;2022-12-04T00:56:31;95929.47;;;1.71;100.00
11444;BME280;5778;47.856;12.154;2022-12-04T00:58:59;95936.91;;;1.74;100.00
11444;BME280;5778;47.856;12.154;2022-12-04T01:01:27;95939.72;;;1.79;100.00
11444;BME280;5778;47.856;12.154;2022-12-04T01:03:54;95935.09;;;1.74;100.00
11444;BME280;5778;47.856;12.154;2022-12-04T01:06:23;95944.34;;;1.83;100.00
11444;BME280;5778;47.856;12.154;2022-12-04T01:08:53;95937.25;;;1.90;100.00
11444;BME280;5778;47.856;12.154;2022-12-04T01:11:22;95942.13;;;1.87;100.00
11444;BME280;5778;47.856;12.154;2022-12-04T01:13:50;95937.53;;;1.69;100.00
11444;BME280;5778;47.856;12.154;2022-12-04T01:16:19;95935.94;;;1.62;100.00
11444;BME280;5778;47.856;12.154;2022-12-04T01:18:47;95929.09;;;1.61;100.00
11444;BME280;5778;47.856;12.154;2022-12-04T01:21:14;95937.38;;;1.58;100.00
11444;BME280;5778;47.856;12.154;2022-12-04T01:23:41;95931.09;;;1.65;100.00
11444;BME280;5778;47.856;12.154;2022-12-04T01:26:11;95942.56;;;1.77;100.00
11444;BME280;5778;47.856;12.154;2022-12-04T01:28:38;95941.56;;;1.65;100.00
11444;BME280;5778;47.856;12.154;2022-12-04T01:31:07;95940.97;;;1.70;100.00
11444;BME280;5778;47.856;12.154;2022-12-04T01:33:35;95946.84;;;1.59;100.00
11444;BME280;5778;47.856;12.154;2022-12-04T01:36:05;95929.69;;;1.63;100.00
11444;BME280;5778;47.856;12.154;2022-12-04T01:38:33;95931.66;;;1.74;100.00
11444;BME280;5778;47.856;12.154;2022-12-04T01:41:00;95929.88;;;1.68;100.00
11444;BME280;5778;47.856;12.154;2022-12-04T01:43:31;95926.22;;;1.75;100.00
11444;BME280;5778;47.856;12.154;2022-12-04T01:45:59;95922.25;;;1.60;100.00
11444;BME280;5778;47.856;12.154;2022-12-04T01:48:29;95928.69;;;1.64;100.00
11444;BME280;5778;47.856;12.154;2022-12-04T01:51:02;95925.66;;;1.67;100.00
11444;BME280;5778;47.856;12.154;2022-12-04T01:53:31;95914.97;;;1.68;100.00
11444;BME280;5778;47.856;12.154;2022-12-04T01:56:00;95915.34;;;1.72;100.00
11444;BME280;5778;47.856;12.154;2022-12-04T01:58:33;95905.09;;;1.64;100.00
11444;BME280;5778;47.856;12.154;2022-12-04T02:01:05;95899.06;;;1.57;100.00
11444;BME280;5778;47.856;12.154;2022-12-04T02:03:33;95907.56;;;1.52;100.00
11444;BME280;5778;47.856;12.154;2022-12-04T02:06:01;95906.94;;;1.57;100.00
11444;BME280;5778;47.856;12.154;2022-12-04T02:08:29;95906.34;;;1.55;100.00
11444;BME280;5778;47.856;12.154;2022-12-04T02:11:04;95896.25;;;1.58;100.00
11444;BME280;5778;47.856;12.154;2022-12-04T02:13:41;95896.22;;;1.65;100.00
11444;BME280;5778;47.856;12.154;2022-12-04T02:16:16;95898.19;;;1.76;100.00
11444;BME280;5778;47.856;12.154;2022-12-04T02:18:50;95890.09;;;1.84;100.00
11444;BME280;5778;47.856;12.154;2022-12-04T02:21:20;95897.16;;;1.83;100.00
11444;BME280;5778;47.856;12.154;2022-12-04T02:24:11;95903.19;;;1.84;100.00
11444;BME280;5778;47.856;12.154;2022-12-04T02:26:46;95900.00;;;1.82;100.00
11444;BME280;5778;47.856;12.154;2022-12-04T02:29:22;95897.94;;;1.90;100.00
11444;BME280;5778;47.856;12.154;2022-12-04T02:31:58;95891.34;;;1.75;100.00
11444;BME280;5778;47.856;12.154;2022-12-04T02:34:33;95889.06;;;1.85;100.00
11444;BME280;5778;47.856;12.154;2022-12-04T02:37:06;95887.06;;;1.87;100.00
11444;BME280;5778;47.856;12.154;2022-12-04T02:39:37;95879.66;;;1.77;100.00
11444;BME280;5778;47.856;12.154;2022-12-04T02:42:10;95883.44;;;1.88;100.00
11444;BME280;5778;47.856;12.154;2022-12-04T02:44:43;95879.38;;;1.92;100.00
11444;BME280;5778;47.856;12.154;2022-12-04T02:47:13;95879.56;;;1.97;100.00
11444;BME280;5778;47.856;12.154;2022-12-04T02:49:45;95882.28;;;1.77;100.00
11444;BME280;5778;47.856;12.154;2022-12-04T02:52:16;95876.59;;;1.87;100.00
11444;BME280;5778;47.856;12.154;2022-12-04T02:54:48;95881.47;;;1.77;100.00
11444;BME280;5778;47.856;12.154;2022-12-04T02:57:18;95875.63;;;1.75;100.00
11444;BME280;5778;47.856;12.154;2022-12-04T02:59:50;95885.47;;;1.79;100.00
11444;BME280;5778;47.856;12.154;2022-12-04T03:02:25;95886.88;;;1.88;100.00
11444;BME280;5778;47.856;12.154;2022-12-04T03:04:55;95881.38;;;1.96;100.00
11444;BME280;5778;47.856;12.154;2022-12-04T03:07:27;95870.06;;;1.96;100.00
11444;BME280;5778;47.856;12.154;2022-12-04T03:09:58;95880.97;;;1.99;100.00
11444;BME280;5778;47.856;12.154;2022-12-04T03:12:33;95876.50;;;2.00;100.00
11444;BME280;5778;47.856;12.154;2022-12-04T03:15:07;95880.97;;;1.99;100.00
11444;BME280;5778;47.856;12.154;2022-12-04T03:17:38;95880.34;;;1.97;100.00
11444;BME280;5778;47.856;12.154;2022-12-04T03:20:09;95870.91;;;1.90;100.00
11444;BME280;5778;47.856;12.154;2022-12-04T03:22:40;95870.47;;;1.99;100.00
11444;BME280;5778;47.856;12.154;2022-12-04T03:25:08;95870.41;;;2.06;100.00
11444;BME280;5778;47.856;12.154;2022-12-04T03:27:41;95870.41;;;2.06;100.00
11444;BME280;5778;47.856;12.154;2022-12-04T03:30:15;95873.47;;;2.03;100.00
11444;BME280;5778;47.856;12.154;2022-12-04T03:32:45;95865.56;;;2.09;100.00
11444;BME280;5778;47.856;12.154;2022-12-04T03:35:18;95862.59;;;1.99;100.00
11444;BME280;5778;47.856;12.154;2022-12-04T03:37:51;95873.03;;;2.06;100.00
11444;BME280;5778;47.856;12.154;2022-12-04T03:40:22;95870.00;;;2.09;100.00
11444;BME280;5778;47.856;12.154;2022-12-04T03:42:56;95864.19;;;2.07;100.00
11444;BME280;5778;47.856;12.154;2022-12-04T03:45:28;95857.66;;;2.16;100.00
11444;BME280;5778;47.856;12.154;2022-12-04T03:48:00;95842.19;;;2.08;100.00
11444;BME280;5778;47.856;12.154;2022-12-04T03:50:33;95846.75;;;2.19;100.00
11444;BME280;5778;47.856;12.154;2022-12-04T03:53:07;95845.97;;;2.12;100.00
11444;BME280;5778;47.856;12.154;2022-12-04T03:55:41;95847.88;;;1.98;100.00
11444;BME280;5778;47.856;12.154;2022-12-04T03:58:12;95845.38;;;2.10;100.00
11444;BME280;5778;47.856;12.154;2022-12-04T04:00:43;95849.16;;;2.20;100.00
11444;BME280;5778;47.856;12.154;2022-12-04T04:03:16;95845.94;;;2.18;100.00
11444;BME280;5778;47.856;12.154;2022-12-04T04:05:48;95848.50;;;2.31;100.00
11444;BME280;5778;47.856;12.154;2022-12-04T04:08:22;95832.41;;;2.21;100.00
11444;BME280;5778;47.856;12.154;2022-12-04T04:10:57;95832.41;;;2.21;100.00
11444;BME280;5778;47.856;12.154;2022-12-04T04:13:28;95827.47;;;2.07;100.00
11444;BME280;5778;47.856;12.154;2022-12-04T04:16:19;95836.84;;;2.21;100.00
11444;BME280;5778;47.856;12.154;2022-12-04T04:19:05;95841.72;;;2.17;100.00
11444;BME280;5778;47.856;12.154;2022-12-04T04:22:02;95839.94;;;2.11;100.00
11444;BME280;5778;47.856;12.154;2022-12-04T04:24:51;95843.69;;;2.22;100.00
11444;BME280;5778;47.856;12.154;2022-12-04T04:27:19;95847.72;;;2.24;100.00
11444;BME280;5778;47.856;12.154;2022-12-04T04:29:46;95847.72;;;2.24;100.00
11444;BME280;5778;47.856;12.154;2022-12-04T04:32:21;95845.72;;;2.20;100.00
11444;BME280;5778;47.856;12.154;2022-12-04T04:34:58;95848.53;;;2.25;100.00
11444;BME280;5778;47.856;12.154;2022-12-04T04:37:34;95840.66;;;2.25;100.00
11444;BME280;5778;47.856;12.154;2022-12-04T04:40:10;95829.91;;;2.33;100.00
11444;BME280;5778;47.856;12.154;2022-12-04T04:42:44;95830.38;;;2.23;100.00
11444;BME280;5778;47.856;12.154;2022-12-04T04:45:15;95825.94;;;2.24;100.00
11444;BME280;5778;47.856;12.154;2022-12-04T04:47:49;95826.31;;;2.27;100.00
11444;BME280;5778;47.856;12.154;2022-12-04T04:50:19;95825.28;;;2.28;100.00
11444;BME280;5778;47.856;12.154;2022-12-04T04:52:48;95832.03;;;2.18;100.00
11444;BME280;5778;47.856;12.154;2022-12-04T04:55:18;95822.06;;;2.02;100.00
11444;BME280;5778;47.856;12.154;2022-12-04T04:57:45;95812.91;;;2.11;100.00
11444;BME280;5778;47.856;12.154;2022-12-04T05:00:15;95820.78;;;2.11;100.00
11444;BME280;5778;47.856;12.154;2022-12-04T05:02:43;95818.94;;;2.18;100.00
11444;BME280;5778;47.856;12.154;2022-12-04T05:05:12;95820.06;;;2.28;100.00
11444;BME280;5778;47.856;12.154;2022-12-04T05:07:39;95813.69;;;2.18;100.00
11444;BME280;5778;47.856;12.154;2022-12-04T05:10:08;95817.53;;;2.15;100.00
11444;BME280;5778;47.856;12.154;2022-12-04T05:12:35;95804.63;;;2.14;100.00
11444;BME280;5778;47.856;12.154;2022-12-04T05:15:02;95798.28;;;1.97;100.00
11444;BME280;5778;47.856;12.154;2022-12-04T05:17:29;95810.00;;;1.94;100.00
11444;BME280;5778;47.856;12.154;2022-12-04T05:19:56;95819.13;;;2.16;100.00
11444;BME280;5778;47.856;12.154;2022-12-04T05:22:26;95818.50;;;2.21;100.00
11444;BME280;5778;47.856;12.154;2022-12-04T05:24:54;95812.66;;;2.19;100.00
11444;BME280;5778;47.856;12.154;2022-12-04T05:27:23;95813.25;;;2.21;100.00
11444;BME280;5778;47.856;12.154;2022-12-04T05:29:50;95823.94;;;2.19;100.00
11444;BME280;5778;47.856;12.154;2022-12-04T05:32:17;95830.47;;;2.10;100.00
11444;BME280;5778;47.856;12.154;2022-12-04T05:34:46;95821.97;;;2.15;100.00
11444;BME280;5778;47.856;12.154;2022-12-04T05:37:14;95824.75;;;2.20;100.00
11444;BME280;5778;47.856;12.154;2022-12-04T05:39:43;95822.81;;;2.09;100.00
11444;BME280;5778;47.856;12.154;2022-12-04T05:42:11;95826.78;;;2.18;100.00
11444;BME280;5778;47.856;12.154;2022-12-04T05:44:38;95824.31;;;2.23;100.00
11444;BME280;5778;47.856;12.154;2022-12-04T05:47:06;95815.50;;;2.17;100.00
11444;BME280;5778;47.856;12.154;2022-12-04T05:49:33;95819.50;;;2.20;100.00
11444;BME280;5778;47.856;12.154;2022-12-04T05:52:03;95816.69;;;2.21;100.00
11444;BME280;5778;47.856;12.154;2022-12-04T05:54:31;95804.81;;;2.12;100.00
11444;BME280;5778;47.856;12.154;2022-12-04T05:56:59;95806.97;;;2.22;100.00
11444;BME280;5778;47.856;12.154;2022-12-04T05:59:27;95813.03;;;2.22;100.00
11444;BME280;5778;47.856;12.154;2022-12-04T06:01:53;95802.16;;;2.19;100.00
11444;BME280;5778;47.856;12.154;2022-12-04T06:04:20;95789.75;;;2.08;100.00
11444;BME280;5778;47.856;12.154;2022-12-04T06:06:47;95777.47;;;2.02;100.00
11444;BME280;5778;47.856;12.154;2022-12-04T06:09:14;95780.94;;;1.96;100.00
11444;BME280;5778;47.856;12.154;2022-12-04T06:11:42;95802.31;;;1.99;100.00
11444;BME280;5778;47.856;12.154;2022-12-04T06:14:13;95807.06;;;2.09;100.00
11444;BME280;5778;47.856;12.154;2022-12-04T06:16:42;95805.03;;;2.11;100.00
11444;BME280;5778;47.856;12.154;2022-12-04T06:19:12;95817.19;;;2.05;100.00
11444;BME280;5778;47.856;12.154;2022-12-04T06:21:40;95822.63;;;2.04;100.00
11444;BME280;5778;47.856;12.154;2022-12-04T06:24:11;95818.25;;;1.98;100.00
11444;BME280;5778;47.856;12.154;2022-12-04T06:26:39;95830.47;;;2.10;100.00
11444;BME280;5778;47.856;12.154;2022-12-04T06:29:06;95825.47;;;2.02;100.00
11444;BME280;5778;47.856;12.154;2022-12-04T06:31:35;95816.66;;;1.90;100.00
11444;BME280;5778;47.856;12.154;2022-12-04T06:34:03;95806.03;;;1.79;100.00
11444;BME280;5778;47.856;12.154;2022-12-04T06:36:30;95806.47;;;1.76;100.00
11444;BME280;5778;47.856;12.154;2022-12-04T06:38:58;95812.50;;;1.76;100.00
11444;BME280;5778;47.856;12.154;2022-12-04T06:41:26;95819.56;;;1.76;100.00
11444;BME280;5778;47.856;12.154;2022-12-04T06:43:54;95819.56;;;1.82;100.00
11444;BME280;5778;47.856;12.154;2022-12-04T06:46:23;95816.94;;;1.82;100.00
11444;BME280;5778;47.856;12.154;2022-12-04T06:48:53;95822.56;;;1.86;100.00
11444;BME280;5778;47.856;12.154;2022-12-04T06:51:22;95832.00;;;1.87;100.00
11444;BME280;5778;47.856;12.154;2022-12-04T06:53:49;95822.78;;;1.78;100.00
11444;BME280;5778;47.856;12.154;2022-12-04T06:56:19;95821.00;;;1.72;100.00
11444;BME280;5778;47.856;12.154;2022-12-04T06:58:48;95828.03;;;1.78;100.00
11444;BME280;5778;47.856;12.154;2022-12-04T07:01:17;95821.59;;;1.74;100.00
11444;BME280;5778;47.856;12.154;2022-12-04T07:03:44;95817.78;;;1.70;100.00
11444;BME280;5778;47.856;12.154;2022-12-04T07:06:16;95830.06;;;1.76;100.00
11444;BME280;5778;47.856;12.154;2022-12-04T07:08:45;95838.97;;;1.68;100.00
11444;BME280;5778;47.856;12.154;2022-12-04T07:11:13;95834.81;;;1.92;100.00
11444;BME280;5778;47.856;12.154;2022-12-04T07:13:40;95830.97;;;1.94;100.00
11444;BME280;5778;47.856;12.154;2022-12-04T07:16:10;95825.94;;;1.93;100.00
11444;BME280;5778;47.856;12.154;2022-12-04T07:18:38;95808.84;;;1.84;100.00
11444;BME280;5778;47.856;12.154;2022-12-04T07:21:06;95807.22;;;1.83;100.00
11444;BME280;5778;47.856;12.154;2022-12-04T07:23:35;95802.00;;;1.76;100.00
11444;BME280;5778;47.856;12.154;2022-12-04T07:26:04;95804.06;;;1.68;100.00
11444;BME280;5778;47.856;12.154;2022-12-04T07:28:31;95820.41;;;1.70;100.00
11444;BME280;5778;47.856;12.154;2022-12-04T07:31:01;95835.97;;;1.65;100.00
11444;BME280;5778;47.856;12.154;2022-12-04T07:33:28;95825.03;;;1.68;100.00
11444;BME280;5778;47.856;12.154;2022-12-04T07:35:56;95819.09;;;1.92;100.00
11444;BME280;5778;47.856;12.154;2022-12-04T07:38:24;95812.91;;;1.80;100.00
11444;BME280;5778;47.856;12.154;2022-12-04T07:40:54;95804.91;;;1.62;100.00
11444;BME280;5778;47.856;12.154;2022-12-04T07:43:21;95812.13;;;1.73;100.00
11444;BME280;5778;47.856;12.154;2022-12-04T07:45:48;95822.41;;;1.74;100.00
11444;BME280;5778;47.856;12.154;2022-12-04T07:48:15;95821.34;;;1.82;100.00
11444;BME280;5778;47.856;12.154;2022-12-04T07:50:42;95843.53;;;1.86;100.00
11444;BME280;5778;47.856;12.154;2022-12-04T07:53:09;95834.63;;;1.87;100.00
11444;BME280;5778;47.856;12.154;2022-12-04T07:55:36;95826.75;;;1.93;100.00
11444;BME280;5778;47.856;12.154;2022-12-04T07:58:05;95828.03;;;1.78;100.00
11444;BME280;5778;47.856;12.154;2022-12-04T08:00:32;95815.75;;;1.72;100.00
11444;BME280;5778;47.856;12.154;2022-12-04T08:02:59;95803.91;;;1.63;100.00
11444;BME280;5778;47.856;12.154;2022-12-04T08:05:26;95804.97;;;1.55;100.00
11444;BME280;5778;47.856;12.154;2022-12-04T08:07:53;95816.59;;;1.66;100.00
11444;BME280;5778;47.856;12.154;2022-12-04T08:10:20;95827.00;;;1.79;100.00
11444;BME280;5778;47.856;12.154;2022-12-04T08:12:47;95816.03;;;1.95;100.00
11444;BME280;5778;47.856;12.154;2022-12-04T08:15:16;95841.88;;;1.85;100.00
11444;BME280;5778;47.856;12.154;2022-12-04T08:17:44;95851.44;;;2.10;100.00
11444;BME280;5778;47.856;12.154;2022-12-04T08:20:11;95833.28;;;2.09;100.00
11444;BME280;5778;47.856;12.154;2022-12-04T08:22:39;95843.44;;;1.99;100.00
11444;BME280;5778;47.856;12.154;2022-12-04T08:25:06;95844.88;;;1.95;100.00
11444;BME280;5778;47.856;12.154;2022-12-04T08:27:34;95847.16;;;2.16;100.00
11444;BME280;5778;47.856;12.154;2022-12-04T08:30:01;95842.25;;;2.26;100.00
11444;BME280;5778;47.856;12.154;2022-12-04T08:32:29;95844.53;;;2.47;100.00
11444;BME280;5778;47.856;12.154;2022-12-04T08:34:56;95835.06;;;2.46;100.00
11444;BME280;5778;47.856;12.154;2022-12-04T08:37:23;95848.34;;;2.51;100.00
11444;BME280;5778;47.856;12.154;2022-12-04T08:39:51;95842.16;;;2.63;100.00
11444;BME280;5778;47.856;12.154;2022-12-04T08:42:18;95849.34;;;2.74;100.00
11444;BME280;5778;47.856;12.154;2022-12-04T08:44:45;95842.78;;;2.90;100.00
11444;BME280;5778;47.856;12.154;2022-12-04T08:47:12;95837.50;;;2.90;100.00
11444;BME280;5778;47.856;12.154;2022-12-04T08:49:41;95828.75;;;2.78;100.00
11444;BME280;5778;47.856;12.154;2022-12-04T08:52:08;95826.13;;;2.78;100.00
11444;BME280;5778;47.856;12.154;2022-12-04T08:54:35;95829.84;;;2.88;100.00
11444;BME280;5778;47.856;12.154;2022-12-04T08:57:02;95828.16;;;2.94;100.00
11444;BME280;5778;47.856;12.154;2022-12-04T08:59:30;95832.13;;;2.60;100.00
11444;BME280;5778;47.856;12.154;2022-12-04T09:01:56;95846.06;;;2.30;100.00
11444;BME280;5778;47.856;12.154;2022-12-04T09:04:23;95849.22;;;2.14;100.00
11444;BME280;5778;47.856;12.154;2022-12-04T09:06:52;95843.22;;;2.07;100.00
11444;BME280;5778;47.856;12.154;2022-12-04T09:09:19;95829.25;;;2.13;100.00
11444;BME280;5778;47.856;12.154;2022-12-04T09:11:46;95833.47;;;2.14;100.00
11444;BME280;5778;47.856;12.154;2022-12-04T09:14:13;95830.41;;;2.17;100.00
11444;BME280;5778;47.856;12.154;2022-12-04T09:16:43;95847.88;;;1.98;100.00
11444;BME280;5778;47.856;12.154;2022-12-04T09:19:10;95831.94;;;2.00;100.00
11444;BME280;5778;47.856;12.154;2022-12-04T09:21:37;95831.69;;;2.08;100.00
11444;BME280;5778;47.856;12.154;2022-12-04T09:24:06;95835.22;;;2.26;100.00
11444;BME280;5778;47.856;12.154;2022-12-04T09:26:33;95824.59;;;2.15;100.00
11444;BME280;5778;47.856;12.154;2022-12-04T09:29:02;95827.53;;;2.25;100.00
11444;BME280;5778;47.856;12.154;2022-12-04T09:31:30;95822.97;;;2.14;100.00
11444;BME280;5778;47.856;12.154;2022-12-04T09:33:58;95838.28;;;2.17;100.00
11444;BME280;5778;47.856;12.154;2022-12-04T09:36:26;95845.63;;;2.33;100.00
11444;BME280;5778;47.856;12.154;2022-12-04T09:38:53;95842.31;;;2.44;100.00
11444;BME280;5778;47.856;12.154;2022-12-04T09:41:38;95828.13;;;2.51;100.00
11444;BME280;5778;47.856;12.154;2022-12-04T09:44:15;95820.91;;;2.47;100.00
11444;BME280;5778;47.856;12.154;2022-12-04T09:46:49;95822.19;;;2.38;100.00
11444;BME280;5778;47.856;12.154;2022-12-04T09:49:22;95824.75;;;2.20;100.00
11444;BME280;5778;47.856;12.154;2022-12-04T09:51:51;95818.25;;;1.98;100.00
11444;BME280;5778;47.856;12.154;2022-12-04T09:54:23;95803.53;;;1.97;100.00
11444;BME280;5778;47.856;12.154;2022-12-04T09:56:57;95792.25;;;1.90;100.00
11444;BME280;5778;47.856;12.154;2022-12-04T09:59:27;95782.81;;;2.13;100.00
11444;BME280;5778;47.856;12.154;2022-12-04T10:01:57;95778.78;;;2.17;100.00
11444;BME280;5778;47.856;12.154;2022-12-04T10:04:29;95779.03;;;2.34;100.00
11444;BME280;5778;47.856;12.154;2022-12-04T10:07:01;95776.09;;;2.24;100.00
11444;BME280;5778;47.856;12.154;2022-12-04T10:09:36;95768.66;;;2.21;100.00
11444;BME280;5778;47.856;12.154;2022-12-04T10:12:15;95769.63;;;2.51;100.00
11444;BME280;5778;47.856;12.154;2022-12-04T10:15:00;95765.34;;;2.32;100.00
11444;BME280;5778;47.856;12.154;2022-12-04T10:17:43;95777.22;;;2.59;100.00
11444;BME280;5778;47.856;12.154;2022-12-04T10:20:27;95766.34;;;2.55;100.00
11444;BME280;5778;47.856;12.154;2022-12-04T10:23:03;95766.56;;;2.54;100.00
11444;BME280;5778;47.856;12.154;2022-12-04T10:25:35;95762.66;;;2.63;100.00
11444;BME280;5778;47.856;12.154;2022-12-04T10:28:21;95763.25;;;2.83;100.00
11444;BME280;5778;47.856;12.154;2022-12-04T10:30:52;95749.47;;;2.87;100.00
11444;BME280;5778;47.856;12.154;2022-12-04T10:33:23;95745.72;;;2.59;100.00
11444;BME280;5778;47.856;12.154;2022-12-04T10:35:53;95746.75;;;2.76;100.00
11444;BME280;5778;47.856;12.154;2022-12-04T10:38:28;95745.53;;;2.78;100.00
11444;BME280;5778;47.856;12.154;2022-12-04T10:40:59;95755.66;;;2.75;100.00
11444;BME280;5778;47.856;12.154;2022-12-04T10:43:35;95752.16;;;2.99;100.00
11444;BME280;5778;47.856;12.154;2022-12-04T10:46:08;95742.09;;;3.14;100.00
11444;BME280;5778;47.856;12.154;2022-12-04T10:48:37;95749.25;;;3.25;100.00
11444;BME280;5778;47.856;12.154;2022-12-04T10:51:13;95747.03;;;3.40;100.00
11444;BME280;5778;47.856;12.154;2022-12-04T10:53:40;95747.63;;;3.42;100.00
11444;BME280;5778;47.856;12.154;2022-12-04T10:56:09;95749.13;;;3.49;100.00
11444;BME280;5778;47.856;12.154;2022-12-04T10:58:39;95738.41;;;3.51;100.00
11444;BME280;5778;47.856;12.154;2022-12-04T11:01:09;95748.16;;;3.62;100.00
11444;BME280;5778;47.856;12.154;2022-12-04T11:03:38;95739.03;;;3.64;100.00
11444;BME280;5778;47.856;12.154;2022-12-04T11:06:08;95727.53;;;3.77;100.00
11444;BME280;5778;47.856;12.154;2022-12-04T11:08:37;95727.84;;;3.69;100.00
11444;BME280;5778;47.856;12.154;2022-12-04T11:11:07;95720.97;;;3.38;100.00
11444;BME280;5778;47.856;12.154;2022-12-04T11:13:36;95726.94;;;3.16;100.00
11444;BME280;5778;47.856;12.154;2022-12-04T11:16:05;95722.03;;;3.19;100.00
11444;BME280;5778;47.856;12.154;2022-12-04T11:18:33;95709.38;;;2.98;100.00
11444;BME280;5778;47.856;12.154;2022-12-04T11:21:04;95721.81;;;3.03;100.00
11444;BME280;5778;47.856;12.154;2022-12-04T11:23:40;95712.41;;;2.77;100.00
11444;BME280;5778;47.856;12.154;2022-12-04T11:26:09;95721.22;;;2.65;100.00
11444;BME280;5778;47.856;12.154;2022-12-04T11:28:38;95708.19;;;2.76;100.00
11444;BME280;5778;47.856;12.154;2022-12-04T11:31:08;95711.63;;;2.95;100.00
11444;BME280;5778;47.856;12.154;2022-12-04T11:33:42;95709.38;;;2.98;100.00
11444;BME280;5778;47.856;12.154;2022-12-04T11:36:18;95716.00;;;3.01;100.00
11444;BME280;5778;47.856;12.154;2022-12-04T11:38:47;95715.50;;;2.92;100.00
11444;BME280;5778;47.856;12.154;2022-12-04T11:41:23;95717.88;;;2.94;100.00
11444;BME280;5778;47.856;12.154;2022-12-04T11:43:50;95717.44;;;2.97;100.00
11444;BME280;5778;47.856;12.154;2022-12-04T11:46:22;95722.84;;;3.02;100.00
11444;BME280;5778;47.856;12.154;2022-12-04T11:48:49;95714.31;;;3.24;100.00
11444;BME280;5778;47.856;12.154;2022-12-04T11:51:22;95713.22;;;3.14;100.00
11444;BME280;5778;47.856;12.154;2022-12-04T11:53:59;95706.94;;;2.97;100.00
11444;BME280;5778;47.856;12.154;2022-12-04T11:56:32;95702.56;;;2.91;100.00
11444;BME280;5778;47.856;12.154;2022-12-04T11:59:16;95699.78;;;3.04;100.00
11444;BME280;5778;47.856;12.154;2022-12-04T12:01:51;95685.44;;;3.36;100.00
11444;BME280;5778;47.856;12.154;2022-12-04T12:04:36;95696.91;;;3.41;100.00
11444;BME280;5778;47.856;12.154;2022-12-04T12:07:20;95695.94;;;3.36;100.00
11444;BME280;5778;47.856;12.154;2022-12-04T12:09:54;95680.78;;;3.38;100.00
11444;BME280;5778;47.856;12.154;2022-12-04T12:12:33;95684.59;;;3.24;100.00
11444;BME280;5778;47.856;12.154;2022-12-04T12:15:10;95681.06;;;3.30;100.00
11444;BME280;5778;47.856;12.154;2022-12-04T12:17:45;95678.50;;;3.41;100.00
11444;BME280;5778;47.856;12.154;2022-12-04T12:20:16;95679.00;;;3.32;100.00
11444;BME280;5778;47.856;12.154;2022-12-04T12:23:08;95677.75;;;3.23;100.00
11444;BME280;5778;47.856;12.154;2022-12-04T12:25:43;95668.00;;;3.41;100.00
11444;BME280;5778;47.856;12.154;2022-12-04T12:28:19;95653.91;;;3.36;100.00
11444;BME280;5778;47.856;12.154;2022-12-04T12:31:03;95654.19;;;3.46;100.00
11444;BME280;5778;47.856;12.154;2022-12-04T12:33:38;95660.84;;;3.60;100.00
11444;BME280;5778;47.856;12.154;2022-12-04T12:36:09;95662.94;;;3.69;100.00
11444;BME280;5778;47.856;12.154;2022-12-04T12:38:40;95653.78;;;3.31;100.00
11444;BME280;5778;47.856;12.154;2022-12-04T12:41:12;95670.78;;;3.28;100.00
11444;BME280;5778;47.856;12.154;2022-12-04T12:43:43;95665.59;;;3.40;100.00
11444;BME280;5778;47.856;12.154;2022-12-04T12:46:15;95648.31;;;2.85;100.00
11444;BME280;5778;47.856;12.154;2022-12-04T12:48:50;95657.28;;;2.95;100.00
11444;BME280;5778;47.856;12.154;2022-12-04T12:51:32;95674.41;;;2.98;100.00
11444;BME280;5778;47.856;12.154;2022-12-04T12:54:08;95672.38;;;2.82;100.00
11444;BME280;5778;47.856;12.154;2022-12-04T12:56:40;95656.34;;;2.72;100.00
11444;BME280;5778;47.856;12.154;2022-12-04T12:59:13;95659.94;;;2.59;100.00
11444;BME280;5778;47.856;12.154;2022-12-04T13:01:45;95669.75;;;2.64;100.00
11444;BME280;5778;47.856;12.154;2022-12-04T13:04:19;95659.31;;;2.57;100.00
11444;BME280;5778;47.856;12.154;2022-12-04T13:06:52;95661.72;;;2.77;100.00
11444;BME280;5778;47.856;12.154;2022-12-04T13:09:26;95656.22;;;2.67;100.00
11444;BME280;5778;47.856;12.154;2022-12-04T13:11:59;95660.72;;;2.78;100.00
11444;BME280;5778;47.856;12.154;2022-12-04T13:14:28;95649.66;;;2.58;100.00
11444;BME280;5778;47.856;12.154;2022-12-04T13:16:57;95654.69;;;2.59;100.00